createdAt,value
2023-02-15T00:02:05.617Z,12.93
2023-02-15T00:04:49.602Z,11.77
2023-02-15T00:07:33.653Z,13.03
2023-02-15T00:10:18.433Z,12.03
2023-02-15T00:13:02.872Z,10.43
2023-02-15T00:15:48.345Z,11.03
2023-02-15T00:18:32.751Z,10.37
2023-02-15T00:21:16.738Z,12.20
2023-02-15T00:24:02.512Z,10.67
2023-02-15T00:26:47.323Z,12.07
2023-02-15T00:29:31.610Z,14.03
2023-02-15T00:32:17.331Z,13.27
2023-02-15T00:35:01.233Z,12.20
2023-02-15T00:37:45.224Z,12.40
2023-02-15T00:40:29.068Z,12.70
2023-02-15T00:43:13.009Z,11.17
2023-02-15T00:46:01.037Z,12.13
2023-02-15T00:48:46.691Z,12.33
2023-02-15T00:51:30.912Z,11.87
2023-02-15T00:54:14.862Z,12.43
2023-02-15T00:56:58.834Z,11.87
2023-02-15T00:59:42.666Z,12.63
2023-02-15T01:02:26.630Z,11.57
2023-02-15T01:05:11.934Z,11.73
2023-02-15T01:07:55.988Z,12.77
2023-02-15T01:10:40.149Z,13.33
2023-02-15T01:13:24.674Z,13.23
2023-02-15T01:16:09.320Z,12.97
2023-02-15T01:18:53.468Z,12.20
2023-02-15T01:21:38.969Z,12.07
2023-02-15T01:24:22.998Z,12.07
2023-02-15T01:27:06.851Z,11.37
2023-02-15T01:29:50.761Z,12.53
2023-02-15T01:32:34.899Z,11.80
2023-02-15T01:35:19.153Z,12.93
2023-02-15T01:38:05.517Z,11.83
2023-02-15T01:40:49.590Z,13.10
2023-02-15T01:43:43.144Z,12.63
2023-02-15T01:46:33.566Z,13.13
2023-02-15T01:49:22.113Z,14.40
2023-02-15T01:52:06.400Z,13.83
2023-02-15T01:54:52.786Z,12.80
2023-02-15T01:57:37.335Z,15.67
2023-02-15T02:00:22.783Z,13.60
2023-02-15T02:03:07.184Z,13.13
2023-02-15T02:05:51.786Z,13.30
2023-02-15T02:08:36.335Z,12.63
2023-02-15T02:11:21.882Z,13.40
2023-02-15T02:14:06.014Z,13.40
2023-02-15T02:16:57.782Z,14.27
2023-02-15T02:20:18.468Z,13.77
2023-02-15T02:23:25.878Z,14.87
2023-02-15T02:27:04.309Z,13.37
2023-02-15T02:30:25.848Z,14.10
2023-02-15T02:33:30.068Z,12.50
2023-02-15T02:36:20.201Z,14.40
2023-02-15T02:39:19.418Z,14.07
2023-02-15T02:42:09.559Z,12.87
2023-02-15T02:44:56.775Z,13.30
2023-02-15T02:47:46.343Z,13.80
2023-02-15T02:50:32.835Z,13.37
2023-02-15T02:53:16.705Z,12.43
2023-02-15T02:56:08.365Z,13.20
2023-02-15T02:58:58.567Z,12.93
2023-02-15T03:01:46.422Z,12.63
2023-02-15T03:04:35.402Z,12.47
2023-02-15T03:07:25.017Z,11.50
2023-02-15T03:10:10.998Z,12.30
2023-02-15T03:12:55.334Z,12.00
2023-02-15T03:15:59.575Z,12.47
2023-02-15T03:18:53.938Z,12.40
2023-02-15T03:21:50.652Z,11.10
2023-02-15T03:24:40.137Z,10.70
2023-02-15T03:27:27.198Z,11.37
2023-02-15T03:30:15.299Z,10.90
2023-02-15T03:33:02.164Z,12.70
2023-02-15T03:35:54.854Z,11.47
2023-02-15T03:38:45.736Z,12.67
2023-02-15T03:41:38.236Z,11.40
2023-02-15T03:44:27.690Z,11.60
2023-02-15T03:47:17.868Z,12.53
2023-02-15T03:50:27.771Z,12.63
2023-02-15T03:53:16.063Z,11.93
2023-02-15T03:56:00.723Z,11.17
2023-02-15T03:59:03.406Z,12.73
2023-02-15T04:02:01.264Z,11.93
2023-02-15T04:04:48.455Z,10.83
2023-02-15T04:07:32.258Z,11.73
2023-02-15T04:10:33.630Z,10.40
2023-02-15T04:13:17.431Z,11.77
2023-02-15T04:16:05.321Z,10.77
2023-02-15T04:19:06.523Z,10.73
2023-02-15T04:22:07.913Z,10.77
2023-02-15T04:25:09.341Z,10.97
2023-02-15T04:27:54.742Z,10.30
2023-02-15T04:30:38.507Z,11.00
2023-02-15T04:33:23.649Z,11.13
2023-02-15T04:36:07.788Z,10.23
2023-02-15T04:38:51.658Z,11.40
2023-02-15T04:41:35.771Z,10.87
2023-02-15T04:44:19.582Z,11.40
2023-02-15T04:47:03.371Z,11.03
2023-02-15T04:49:48.737Z,10.70
2023-02-15T04:52:32.510Z,12.17
2023-02-15T04:55:16.568Z,11.50
2023-02-15T04:58:00.344Z,11.63
2023-02-15T05:00:44.271Z,14.53
2023-02-15T05:03:28.178Z,10.67
2023-02-15T05:06:13.359Z,10.93
2023-02-15T05:09:00.042Z,11.77
2023-02-15T05:11:44.270Z,10.70
2023-02-15T05:14:28.145Z,9.97
2023-02-15T05:17:11.810Z,11.10
2023-02-15T05:19:57.280Z,11.13
2023-02-15T05:22:42.906Z,11.13
2023-02-15T05:25:44.287Z,11.60
2023-02-15T05:28:29.895Z,11.37
2023-02-15T05:31:16.106Z,10.53
2023-02-15T05:34:00.172Z,10.93
2023-02-15T05:36:44.074Z,10.87
2023-02-15T05:39:29.230Z,11.07
2023-02-15T05:42:13.039Z,10.40
2023-02-15T05:44:57.008Z,11.93
2023-02-15T05:47:40.831Z,11.47
2023-02-15T05:50:24.669Z,11.87
2023-02-15T05:53:08.437Z,11.83
2023-02-15T05:55:54.851Z,10.87
2023-02-15T05:58:40.423Z,11.33
2023-02-15T06:01:24.162Z,10.57
2023-02-15T06:04:07.928Z,11.50
2023-02-15T06:06:51.725Z,11.50
2023-02-15T06:09:35.529Z,11.10
2023-02-15T06:12:20.681Z,10.17
2023-02-15T06:15:05.451Z,10.83
2023-02-15T06:17:49.162Z,9.63
2023-02-15T06:20:33.442Z,11.73
2023-02-15T06:23:17.884Z,11.67
2023-02-15T06:26:01.914Z,10.40
2023-02-15T06:28:47.521Z,11.37
2023-02-15T06:31:31.323Z,9.77
2023-02-15T06:34:15.304Z,10.77
2023-02-15T06:36:59.255Z,9.33
2023-02-15T06:39:43.482Z,9.73
2023-02-15T06:42:27.613Z,10.07
2023-02-15T06:45:13.594Z,10.77
2023-02-15T06:47:57.448Z,10.90
2023-02-15T06:50:41.813Z,9.67
2023-02-15T06:53:25.632Z,10.27
2023-02-15T06:56:10.276Z,10.43
2023-02-15T06:58:54.605Z,10.50
2023-02-15T07:01:40.095Z,10.23
2023-02-15T07:04:24.314Z,9.27
2023-02-15T07:07:11.497Z,9.50
2023-02-15T07:09:55.653Z,9.63
2023-02-15T07:12:46.750Z,10.97
2023-02-15T07:15:30.842Z,9.83
2023-02-15T07:18:16.281Z,10.43
2023-02-15T07:21:00.344Z,10.37
2023-02-15T07:23:44.298Z,10.90
2023-02-15T07:26:28.712Z,11.53
2023-02-15T07:29:12.759Z,11.33
2023-02-15T07:31:57.678Z,9.13
2023-02-15T07:34:44.237Z,11.43
2023-02-15T07:37:29.076Z,10.03
2023-02-15T07:40:13.814Z,10.47
2023-02-15T07:43:00.750Z,10.63
2023-02-15T07:45:45.277Z,9.80
2023-02-15T07:48:29.459Z,10.20
2023-02-15T07:51:20.113Z,11.07
2023-02-15T07:54:04.113Z,10.03
2023-02-15T07:56:48.057Z,9.90
2023-02-15T07:59:32.430Z,9.00
2023-02-15T08:02:18.378Z,10.60
2023-02-15T08:05:02.580Z,8.33
2023-02-15T08:07:48.064Z,9.50
2023-02-15T08:10:46.748Z,9.67
2023-02-15T08:13:30.658Z,9.60
2023-02-15T08:16:14.644Z,9.00
2023-02-15T08:18:59.847Z,9.43
2023-02-15T08:21:45.990Z,8.83
2023-02-15T08:24:35.290Z,9.40
2023-02-15T08:27:19.307Z,10.30
2023-02-15T08:30:03.344Z,8.10
2023-02-15T08:32:47.677Z,9.00
2023-02-15T08:35:31.816Z,9.17
2023-02-15T08:38:16.600Z,8.73
2023-02-15T08:41:11.888Z,9.27
2023-02-15T08:43:57.772Z,9.63
2023-02-15T08:46:43.272Z,8.60
2023-02-15T08:49:27.157Z,7.73
2023-02-15T08:52:11.077Z,8.63
2023-02-15T08:54:54.989Z,8.27
2023-02-15T08:57:45.896Z,8.63
2023-02-15T09:00:30.347Z,9.27
2023-02-15T09:03:14.340Z,8.70
2023-02-15T09:06:01.898Z,8.60
2023-02-15T09:08:45.672Z,8.17
2023-02-15T09:11:31.445Z,8.73
2023-02-15T09:14:18.567Z,8.70
2023-02-15T09:17:02.386Z,8.93
2023-02-15T09:19:46.214Z,10.30
2023-02-15T09:22:31.147Z,9.07
2023-02-15T09:25:15.037Z,8.87
2023-02-15T09:27:58.780Z,8.07
2023-02-15T09:30:44.073Z,9.10
2023-02-15T09:33:27.925Z,7.97
2023-02-15T09:36:17.803Z,8.50
2023-02-15T09:39:07.000Z,6.97
2023-02-15T09:42:18.550Z,7.27
2023-02-15T09:45:20.365Z,9.87
2023-02-15T09:48:28.644Z,8.90
2023-02-15T09:51:41.997Z,8.30
2023-02-15T09:54:37.681Z,8.03
2023-02-15T09:57:29.029Z,8.53
2023-02-15T10:00:23.353Z,8.30
2023-02-15T10:03:21.916Z,7.40
2023-02-15T10:06:25.645Z,8.03
2023-02-15T10:09:29.923Z,9.27
2023-02-15T10:12:36.835Z,8.50
2023-02-15T10:15:42.501Z,7.40
2023-02-15T10:18:50.480Z,8.13
2023-02-15T10:21:51.131Z,8.93
2023-02-15T10:24:57.896Z,10.57
2023-02-15T10:27:48.514Z,7.50
2023-02-15T10:30:44.276Z,8.37
2023-02-15T10:33:41.223Z,7.97
2023-02-15T10:36:42.923Z,9.27
2023-02-15T10:39:35.027Z,8.93
2023-02-15T10:42:29.649Z,12.60
2023-02-15T10:45:26.081Z,9.20
2023-02-15T10:48:24.071Z,12.00
2023-02-15T10:51:14.514Z,9.00
2023-02-15T10:54:19.242Z,8.77
2023-02-15T10:57:12.620Z,9.10
2023-02-15T11:00:13.123Z,10.10
2023-02-15T11:03:14.560Z,8.73
2023-02-15T11:06:06.169Z,9.00
2023-02-15T11:08:53.466Z,11.70
2023-02-15T11:11:43.157Z,8.93
2023-02-15T11:14:37.667Z,10.00
2023-02-15T11:17:26.643Z,8.50
2023-02-15T11:20:19.795Z,9.07
2023-02-15T11:23:04.707Z,10.13
2023-02-15T11:25:56.075Z,10.33
2023-02-15T11:28:47.547Z,12.63
2023-02-15T11:31:44.720Z,8.00
2023-02-15T11:34:33.603Z,9.70
2023-02-15T11:37:22.757Z,8.77
2023-02-15T11:40:20.526Z,9.77
2023-02-15T11:43:09.070Z,9.20
2023-02-15T11:45:55.633Z,8.60
2023-02-15T11:48:39.708Z,9.47
2023-02-15T11:51:25.125Z,8.70
2023-02-15T11:54:11.080Z,11.03
2023-02-15T11:56:55.285Z,8.80
2023-02-15T11:59:42.456Z,9.47
2023-02-15T12:02:31.179Z,9.33
2023-02-15T12:05:20.184Z,9.17
2023-02-15T12:08:16.097Z,9.33
2023-02-15T12:11:05.310Z,10.40
2023-02-15T12:14:00.401Z,10.13
2023-02-15T12:16:47.602Z,10.30
2023-02-15T12:19:39.264Z,10.03
2023-02-15T12:22:26.367Z,10.80
2023-02-15T12:25:24.532Z,9.17
2023-02-15T12:28:26.237Z,9.10
2023-02-15T12:31:21.841Z,10.10
2023-02-15T12:34:13.917Z,8.40
2023-02-15T12:37:03.317Z,10.90
2023-02-15T12:39:56.747Z,9.43
2023-02-15T12:42:45.749Z,9.93
2023-02-15T12:45:32.096Z,11.37
2023-02-15T12:48:18.489Z,10.57
2023-02-15T12:51:11.603Z,10.53
2023-02-15T12:53:57.277Z,10.13
2023-02-15T12:56:41.368Z,9.80
2023-02-15T12:59:25.524Z,9.90
2023-02-15T13:02:21.621Z,10.60
2023-02-15T13:05:20.892Z,10.77
2023-02-15T13:08:14.023Z,10.67
2023-02-15T13:11:02.063Z,9.90
2023-02-15T13:13:55.497Z,10.33
2023-02-15T13:16:42.014Z,10.40
2023-02-15T13:19:34.221Z,12.03
2023-02-15T13:22:22.555Z,11.00
2023-02-15T13:25:12.872Z,10.97
2023-02-15T13:28:03.016Z,11.50
2023-02-15T13:30:49.259Z,10.93
2023-02-15T13:33:37.497Z,11.67
2023-02-15T13:36:31.449Z,9.33
2023-02-15T13:39:27.407Z,10.60
2023-02-15T13:42:22.780Z,12.03
2023-02-15T13:45:24.631Z,11.40
2023-02-15T13:48:18.763Z,14.77
2023-02-15T13:51:14.025Z,10.70
2023-02-15T13:54:22.608Z,13.27
2023-02-15T13:57:28.338Z,15.30
2023-02-15T14:00:23.882Z,10.90
2023-02-15T14:03:56.121Z,10.03
2023-02-15T14:06:55.516Z,9.07
2023-02-15T14:09:50.583Z,9.90
2023-02-15T14:12:46.548Z,10.67
2023-02-15T14:15:39.045Z,12.00
2023-02-15T14:18:32.660Z,11.70
2023-02-15T14:21:24.540Z,8.27
2023-02-15T14:24:21.452Z,10.53
2023-02-15T14:27:20.877Z,8.57
2023-02-15T14:30:15.012Z,9.13
2023-02-15T14:33:07.032Z,7.77
2023-02-15T14:35:51.222Z,7.23
2023-02-15T14:38:53.152Z,7.73
2023-02-15T14:41:41.998Z,7.07
2023-02-15T14:44:33.413Z,8.17
2023-02-15T14:47:22.239Z,8.30
2023-02-15T14:50:43.942Z,7.10
2023-02-15T14:53:51.087Z,8.37
2023-02-15T14:56:35.205Z,7.43
2023-02-15T14:59:21.799Z,7.70
2023-02-15T15:02:16.084Z,8.00
2023-02-15T15:05:08.799Z,8.63
2023-02-15T15:07:55.123Z,8.47
2023-02-15T15:10:50.220Z,10.83
2023-02-15T15:13:40.352Z,10.33
2023-02-15T15:16:48.008Z,8.10
2023-02-15T15:20:00.769Z,17.63
2023-02-15T15:22:46.895Z,12.77
2023-02-15T15:25:47.357Z,8.63
2023-02-15T15:28:56.983Z,9.07
2023-02-15T15:31:53.796Z,9.37
2023-02-15T15:35:05.705Z,9.20
2023-02-15T15:38:13.213Z,8.33
2023-02-15T15:41:18.823Z,15.27
2023-02-15T15:44:29.932Z,19.10
2023-02-15T15:47:32.861Z,19.43
2023-02-15T15:50:19.393Z,16.03
2023-02-15T15:53:05.630Z,11.77
2023-02-15T15:55:51.218Z,8.87
2023-02-15T15:58:37.436Z,13.17
2023-02-15T16:01:28.944Z,30.07
2023-02-15T16:04:15.105Z,46.50
2023-02-15T16:06:59.980Z,42.17
2023-02-15T16:09:55.384Z,26.47
2023-02-15T16:12:42.070Z,24.60
2023-02-15T16:15:33.368Z,19.00
2023-02-15T16:18:19.682Z,22.50
2023-02-15T16:21:04.748Z,19.87
2023-02-15T16:24:15.137Z,19.57
2023-02-15T16:27:13.855Z,21.80
2023-02-15T16:29:58.284Z,17.90
2023-02-15T16:32:43.861Z,16.53
2023-02-15T16:35:28.374Z,17.60
2023-02-15T16:38:12.893Z,16.57
2023-02-15T16:40:59.218Z,11.90
2023-02-15T16:43:46.538Z,12.60
2023-02-15T16:46:33.695Z,13.87
2023-02-15T16:49:22.538Z,14.23
2023-02-15T16:52:10.352Z,12.17
2023-02-15T16:54:58.975Z,12.93
2023-02-15T16:57:46.334Z,13.87
2023-02-15T17:00:34.354Z,13.33
2023-02-15T17:03:26.404Z,16.07
2023-02-15T17:06:23.501Z,15.00
2023-02-15T17:09:11.666Z,12.77
2023-02-15T17:11:56.430Z,18.30
2023-02-15T17:14:41.957Z,16.23
2023-02-15T17:17:25.997Z,15.60
2023-02-15T17:20:17.617Z,18.30
2023-02-15T17:23:03.613Z,14.57
2023-02-15T17:25:48.117Z,13.73
2023-02-15T17:28:33.755Z,14.67
2023-02-15T17:31:19.877Z,14.67
2023-02-15T17:34:04.345Z,15.57
2023-02-15T17:37:00.108Z,14.27
2023-02-15T17:39:45.630Z,14.43
2023-02-15T17:42:29.599Z,14.53
2023-02-15T17:45:15.392Z,17.77
2023-02-15T17:48:00.589Z,16.93
2023-02-15T17:50:44.762Z,17.27
2023-02-15T17:53:29.359Z,18.40
2023-02-15T17:56:14.812Z,17.70
2023-02-15T17:58:58.977Z,20.37
2023-02-15T18:02:05.323Z,17.17
2023-02-15T18:05:06.895Z,15.30
2023-02-15T18:08:08.683Z,16.10
2023-02-15T18:11:10.345Z,15.47
2023-02-15T18:13:58.052Z,15.50
2023-02-15T18:16:43.892Z,16.00
2023-02-15T18:19:28.119Z,19.03
2023-02-15T18:22:13.119Z,19.53
2023-02-15T18:24:57.321Z,14.47
2023-02-15T18:27:41.917Z,16.67
2023-02-15T18:30:28.291Z,17.13
2023-02-15T18:33:30.716Z,16.00
2023-02-15T18:36:19.550Z,15.83
2023-02-15T18:39:08.850Z,13.87
2023-02-15T18:41:54.599Z,16.43
2023-02-15T18:44:38.849Z,17.40
2023-02-15T18:47:24.437Z,15.47
2023-02-15T18:50:09.447Z,15.63
2023-02-15T18:52:53.916Z,15.20
2023-02-15T18:55:38.081Z,15.57
2023-02-15T18:58:24.798Z,18.00
2023-02-15T19:01:16.885Z,20.37
2023-02-15T19:04:03.529Z,16.27
2023-02-15T19:06:49.509Z,18.03
2023-02-15T19:09:33.871Z,26.10
2023-02-15T19:12:19.679Z,39.63
2023-02-15T19:15:03.872Z,34.23
2023-02-15T19:17:48.162Z,19.47
2023-02-15T19:20:36.636Z,16.37
2023-02-15T19:23:23.721Z,14.63
2023-02-15T19:26:07.762Z,16.70
2023-02-15T19:28:52.383Z,16.60
2023-02-15T19:31:36.479Z,16.47
2023-02-15T19:34:20.922Z,17.87
2023-02-15T19:37:09.158Z,24.70
2023-02-15T19:39:54.766Z,19.27
2023-02-15T19:42:38.880Z,25.00
2023-02-15T19:45:25.158Z,19.77
2023-02-15T19:48:10.898Z,20.00
2023-02-15T19:50:57.010Z,15.60
2023-02-15T19:53:42.905Z,15.17
2023-02-15T19:56:27.599Z,16.50
2023-02-15T19:59:23.392Z,15.93
2023-02-15T20:02:07.667Z,18.23
2023-02-15T20:04:51.862Z,16.30
2023-02-15T20:07:36.060Z,16.03
2023-02-15T20:10:23.305Z,15.60
2023-02-15T20:13:07.399Z,16.63
2023-02-15T20:15:52.836Z,16.87
2023-02-15T20:18:37.189Z,17.73
2023-02-15T20:21:21.412Z,16.87
2023-02-15T20:24:06.708Z,15.83
2023-02-15T20:26:52.396Z,15.00
2023-02-15T20:29:37.023Z,16.40
2023-02-15T20:32:21.034Z,15.33
2023-02-15T20:35:05.398Z,17.13
2023-02-15T20:37:52.406Z,17.77
2023-02-15T20:40:58.651Z,17.00
2023-02-15T20:43:44.314Z,16.30
2023-02-15T20:46:28.351Z,14.97
2023-02-15T20:49:12.807Z,15.07
2023-02-15T20:51:58.584Z,14.40
2023-02-15T20:54:42.854Z,14.00
2023-02-15T20:57:26.988Z,15.43
2023-02-15T21:00:19.163Z,14.70
2023-02-15T21:03:03.560Z,15.77
2023-02-15T21:05:49.770Z,16.10
2023-02-15T21:08:34.566Z,16.67
2023-02-15T21:11:20.751Z,16.90
2023-02-15T21:14:05.044Z,19.20
2023-02-15T21:16:51.387Z,21.10
2023-02-15T21:19:35.680Z,21.40
2023-02-15T21:22:21.764Z,20.70
2023-02-15T21:25:06.223Z,24.23
2023-02-15T21:27:50.112Z,27.80
2023-02-15T21:30:34.438Z,24.27
2023-02-15T21:33:20.371Z,21.40
2023-02-15T21:36:04.631Z,16.13
2023-02-15T21:38:49.233Z,17.30
2023-02-15T21:41:51.344Z,15.47
2023-02-15T21:44:52.738Z,14.97
2023-02-15T21:47:51.693Z,14.63
2023-02-15T21:50:55.556Z,14.70
2023-02-15T21:53:43.240Z,14.60
2023-02-15T21:56:27.137Z,14.03
2023-02-15T21:59:13.070Z,15.67
2023-02-15T22:01:59.266Z,15.47
2023-02-15T22:04:43.372Z,17.13
2023-02-15T22:07:28.546Z,16.00
2023-02-15T22:10:12.833Z,15.87
2023-02-15T22:12:57.164Z,19.07
2023-02-15T22:15:41.927Z,19.37
2023-02-15T22:18:28.903Z,19.30
2023-02-15T22:21:13.722Z,17.00
2023-02-15T22:23:59.111Z,14.23
2023-02-15T22:26:42.901Z,16.97
2023-02-15T22:29:27.093Z,14.73
2023-02-15T22:32:18.534Z,14.30
2023-02-15T22:35:02.520Z,13.23
2023-02-15T22:37:46.935Z,15.30
2023-02-15T22:40:34.899Z,16.30
2023-02-15T22:43:31.863Z,14.17
2023-02-15T22:46:17.802Z,16.23
2023-02-15T22:49:01.778Z,16.33
2023-02-15T22:51:48.503Z,16.30
2023-02-15T22:54:32.254Z,16.10
2023-02-15T22:57:21.179Z,15.33
2023-02-15T23:00:07.198Z,16.43
2023-02-15T23:02:51.196Z,15.57
2023-02-15T23:05:35.068Z,15.50
2023-02-15T23:08:19.210Z,13.60
2023-02-15T23:11:04.004Z,14.13
2023-02-15T23:13:50.815Z,13.83
2023-02-15T23:16:37.440Z,12.93
2023-02-15T23:19:21.483Z,12.63
2023-02-15T23:22:05.397Z,14.60
2023-02-15T23:24:53.769Z,15.77
2023-02-15T23:27:55.100Z,13.23
2023-02-15T23:30:40.180Z,15.70
2023-02-15T23:33:29.294Z,16.43
2023-02-15T23:36:26.547Z,16.67
2023-02-15T23:39:32.783Z,13.50
2023-02-15T23:42:19.378Z,13.63
2023-02-15T23:45:04.509Z,13.37
2023-02-15T23:48:07.757Z,13.47
2023-02-15T23:50:51.666Z,14.80
2023-02-15T23:53:35.634Z,15.23
2023-02-15T23:56:19.793Z,14.23
2023-02-15T23:59:04.313Z,14.90
